sensor_id;sensor_type;location;lat;lon;timestamp;pressure;altitude;pressure_sealevel;temperature;humidity
36828;BME280;22766;48.042;11.192;2023-02-15T00:01:50;96288.66;;;-3.51;100.00
36828;BME280;22766;48.042;11.192;2023-02-15T00:04:20;96296.16;;;-3.49;100.00
36828;BME280;22766;48.042;11.192;2023-02-15T00:06:47;96281.22;;;-3.57;100.00
36828;BME280;22766;48.042;11.192;2023-02-15T00:09:14;96293.31;;;-3.69;100.00
36828;BME280;22766;48.042;11.192;2023-02-15T00:11:42;96287.47;;;-3.71;100.00
36828;BME280;22766;48.042;11.192;2023-02-15T00:14:22;96290.69;;;-3.65;100.00
36828;BME280;22766;48.042;11.192;2023-02-15T00:16:51;96290.50;;;-3.59;100.00
36828;BME280;22766;48.042;11.192;2023-02-15T00:19:19;96288.88;;;-3.60;100.00
36828;BME280;22766;48.042;11.192;2023-02-15T00:21:48;96288.13;;;-3.63;100.00
36828;BME280;22766;48.042;11.192;2023-02-15T00:24:16;96284.75;;;-3.64;100.00
36828;BME280;22766;48.042;11.192;2023-02-15T00:26:44;96287.16;;;-3.58;100.00
36828;BME280;22766;48.042;11.192;2023-02-15T00:29:13;96281.03;;;-3.49;100.00
36828;BME280;22766;48.042;11.192;2023-02-15T00:31:40;96281.19;;;-3.55;100.00
36828;BME280;22766;48.042;11.192;2023-02-15T00:36:40;96273.63;;;-3.55;100.00
36828;BME280;22766;48.042;11.192;2023-02-15T00:39:07;96265.97;;;-3.52;100.00
36828;BME280;22766;48.042;11.192;2023-02-15T00:41:35;96268.59;;;-3.55;100.00
36828;BME280;22766;48.042;11.192;2023-02-15T00:44:05;96268.59;;;-3.55;100.00
36828;BME280;22766;48.042;11.192;2023-02-15T00:46:32;96251.72;;;-3.53;100.00
36828;BME280;22766;48.042;11.192;2023-02-15T00:48:59;96252.41;;;-3.48;100.00
36828;BME280;22766;48.042;11.192;2023-02-15T00:51:26;96253.94;;;-3.43;100.00
36828;BME280;22766;48.042;11.192;2023-02-15T00:53:53;96252.47;;;-3.50;100.00
36828;BME280;22766;48.042;11.192;2023-02-15T00:56:19;96249.25;;;-3.56;100.00
36828;BME280;22766;48.042;11.192;2023-02-15T00:58:46;96245.69;;;-3.49;100.00
36828;BME280;22766;48.042;11.192;2023-02-15T01:01:16;96243.25;;;-3.52;100.00
36828;BME280;22766;48.042;11.192;2023-02-15T01:03:43;96239.19;;;-3.58;100.00
36828;BME280;22766;48.042;11.192;2023-02-15T01:06:10;96234.34;;;-3.65;100.00
36828;BME280;22766;48.042;11.192;2023-02-15T01:08:38;96244.56;;;-3.71;100.00
36828;BME280;22766;48.042;11.192;2023-02-15T01:11:09;96239.78;;;-3.82;100.00
36828;BME280;22766;48.042;11.192;2023-02-15T01:13:36;96244.09;;;-3.87;100.00
36828;BME280;22766;48.042;11.192;2023-02-15T01:16:04;96243.72;;;-4.06;100.00
36828;BME280;22766;48.042;11.192;2023-02-15T01:18:34;96240.25;;;-4.02;100.00
36828;BME280;22766;48.042;11.192;2023-02-15T01:21:18;96239.00;;;-3.86;100.00
36828;BME280;22766;48.042;11.192;2023-02-15T01:23:45;96234.94;;;-3.90;100.00
36828;BME280;22766;48.042;11.192;2023-02-15T01:26:13;96233.53;;;-4.01;100.00
36828;BME280;22766;48.042;11.192;2023-02-15T01:28:42;96231.50;;;-3.87;100.00
36828;BME280;22766;48.042;11.192;2023-02-15T01:31:12;96236.31;;;-3.76;100.00
36828;BME280;22766;48.042;11.192;2023-02-15T01:33:39;96232.59;;;-3.63;100.00
36828;BME280;22766;48.042;11.192;2023-02-15T01:36:08;96233.47;;;-3.64;100.00
36828;BME280;22766;48.042;11.192;2023-02-15T01:38:35;96234.75;;;-3.84;100.00
36828;BME280;22766;48.042;11.192;2023-02-15T01:41:04;96238.91;;;-3.81;100.00
36828;BME280;22766;48.042;11.192;2023-02-15T01:43:52;96233.22;;;-3.88;100.00
36828;BME280;22766;48.042;11.192;2023-02-15T01:46:23;96232.81;;;-4.08;100.00
36828;BME280;22766;48.042;11.192;2023-02-15T01:48:56;96231.09;;;-4.06;100.00
36828;BME280;22766;48.042;11.192;2023-02-15T01:51:25;96238.63;;;-4.04;100.00
36828;BME280;22766;48.042;11.192;2023-02-15T01:54:01;96228.44;;;-4.00;100.00
36828;BME280;22766;48.042;11.192;2023-02-15T01:56:35;96231.09;;;-4.06;100.00
36828;BME280;22766;48.042;11.192;2023-02-15T01:59:08;96223.53;;;-4.06;100.00
36828;BME280;22766;48.042;11.192;2023-02-15T02:01:37;96224.09;;;-3.95;100.00
36828;BME280;22766;48.042;11.192;2023-02-15T02:06:32;96226.16;;;-4.10;100.00
36828;BME280;22766;48.042;11.192;2023-02-15T02:09:00;96228.69;;;-4.10;100.00
36828;BME280;22766;48.042;11.192;2023-02-15T02:11:27;96216.81;;;-4.05;100.00
36828;BME280;22766;48.042;11.192;2023-02-15T02:13:55;96223.34;;;-3.98;100.00
36828;BME280;22766;48.042;11.192;2023-02-15T02:44:47;96191.06;;;-4.19;100.00
36828;BME280;22766;48.042;11.192;2023-02-15T02:47:19;96203.63;;;-4.18;100.00
36828;BME280;22766;48.042;11.192;2023-02-15T02:49:52;96186.66;;;-4.10;100.00
36828;BME280;22766;48.042;11.192;2023-02-15T02:52:40;96200.75;;;-4.03;100.00
36828;BME280;22766;48.042;11.192;2023-02-15T03:00:40;96198.59;;;-3.83;100.00
36828;BME280;22766;48.042;11.192;2023-02-15T03:03:12;96198.50;;;-3.78;100.00
36828;BME280;22766;48.042;11.192;2023-02-15T03:05:45;96195.09;;;-3.77;100.00
36828;BME280;22766;48.042;11.192;2023-02-15T03:08:16;96195.97;;;-3.78;100.00
36828;BME280;22766;48.042;11.192;2023-02-15T03:10:53;96191.47;;;-3.67;100.00
36828;BME280;22766;48.042;11.192;2023-02-15T03:13:22;96195.69;;;-3.67;100.00
36828;BME280;22766;48.042;11.192;2023-02-15T03:15:50;96194.13;;;-3.71;100.00
36828;BME280;22766;48.042;11.192;2023-02-15T03:18:41;96194.16;;;-3.73;100.00
36828;BME280;22766;48.042;11.192;2023-02-15T03:21:11;96190.69;;;-3.69;100.00
36828;BME280;22766;48.042;11.192;2023-02-15T03:24:01;96194.03;;;-3.68;100.00
36828;BME280;22766;48.042;11.192;2023-02-15T03:26:32;96202.00;;;-3.85;100.00
36828;BME280;22766;48.042;11.192;2023-02-15T03:29:02;96210.69;;;-3.95;100.00
36828;BME280;22766;48.042;11.192;2023-02-15T03:31:33;96210.13;;;-3.74;100.00
36828;BME280;22766;48.042;11.192;2023-02-15T03:34:07;96211.25;;;-3.86;100.00
36828;BME280;22766;48.042;11.192;2023-02-15T03:44:25;96203.34;;;-3.70;100.00
36828;BME280;22766;48.042;11.192;2023-02-15T03:47:00;96197.44;;;-3.69;100.00
36828;BME280;22766;48.042;11.192;2023-02-15T03:49:37;96190.78;;;-3.73;100.00
36828;BME280;22766;48.042;11.192;2023-02-15T03:52:07;96190.94;;;-3.80;100.00
36828;BME280;22766;48.042;11.192;2023-02-15T03:54:35;96189.25;;;-3.79;100.00
36828;BME280;22766;48.042;11.192;2023-02-15T04:00:03;96186.81;;;-3.82;100.00
36828;BME280;22766;48.042;11.192;2023-02-15T04:05:48;96198.09;;;-3.95;100.00
36828;BME280;22766;48.042;11.192;2023-02-15T04:08:15;96195.88;;;-4.09;100.00
36828;BME280;22766;48.042;11.192;2023-02-15T04:10:42;96195.94;;;-4.12;100.00
36828;BME280;22766;48.042;11.192;2023-02-15T04:13:32;96195.28;;;-4.20;100.00
36828;BME280;22766;48.042;11.192;2023-02-15T04:15:58;96207.13;;;-4.22;100.00
36828;BME280;22766;48.042;11.192;2023-02-15T04:18:37;96204.44;;;-4.16;100.00
36828;BME280;22766;48.042;11.192;2023-02-15T04:21:25;96206.63;;;-4.02;100.00
36828;BME280;22766;48.042;11.192;2023-02-15T04:24:11;96210.00;;;-4.02;100.00
36828;BME280;22766;48.042;11.192;2023-02-15T04:26:57;96212.63;;;-4.06;100.00
36828;BME280;22766;48.042;11.192;2023-02-15T04:29:25;96203.13;;;-3.95;100.00
36828;BME280;22766;48.042;11.192;2023-02-15T04:31:53;96211.53;;;-3.96;100.00
36828;BME280;22766;48.042;11.192;2023-02-15T04:34:20;96206.59;;;-4.01;100.00
36828;BME280;22766;48.042;11.192;2023-02-15T04:36:47;96206.84;;;-4.11;100.00
36828;BME280;22766;48.042;11.192;2023-02-15T04:39:15;96207.69;;;-4.11;100.00
36828;BME280;22766;48.042;11.192;2023-02-15T04:41:42;96208.06;;;-4.26;100.00
36828;BME280;22766;48.042;11.192;2023-02-15T04:44:09;96207.25;;;-4.28;100.00
36828;BME280;22766;48.042;11.192;2023-02-15T04:46:36;96205.53;;;-4.27;100.00
36828;BME280;22766;48.042;11.192;2023-02-15T04:49:04;96207.25;;;-4.28;100.00
36828;BME280;22766;48.042;11.192;2023-02-15T04:51:30;96210.72;;;-4.32;100.00
36828;BME280;22766;48.042;11.192;2023-02-15T04:53:57;96203.28;;;-4.38;100.00
36828;BME280;22766;48.042;11.192;2023-02-15T04:56:24;96197.22;;;-4.31;100.00
36828;BME280;22766;48.042;11.192;2023-02-15T04:58:50;96192.19;;;-4.31;100.00
36828;BME280;22766;48.042;11.192;2023-02-15T05:01:17;96193.22;;;-4.39;100.00
36828;BME280;22766;48.042;11.192;2023-02-15T05:03:44;96195.81;;;-4.42;100.00
36828;BME280;22766;48.042;11.192;2023-02-15T05:06:11;96196.59;;;-4.39;100.00
36828;BME280;22766;48.042;11.192;2023-02-15T05:08:38;96193.16;;;-4.36;100.00
36828;BME280;22766;48.042;11.192;2023-02-15T05:11:04;96201.47;;;-4.33;100.00
36828;BME280;22766;48.042;11.192;2023-02-15T05:13:31;96195.44;;;-4.27;100.00
36828;BME280;22766;48.042;11.192;2023-02-15T05:15:58;96196.19;;;-4.22;100.00
36828;BME280;22766;48.042;11.192;2023-02-15T05:18:25;96198.63;;;-4.19;100.00
36828;BME280;22766;48.042;11.192;2023-02-15T05:20:51;96198.53;;;-4.15;100.00
36828;BME280;22766;48.042;11.192;2023-02-15T05:23:18;96200.00;;;-4.05;100.00
36828;BME280;22766;48.042;11.192;2023-02-15T05:25:49;96207.75;;;-4.14;100.00
36828;BME280;22766;48.042;11.192;2023-02-15T05:28:36;96208.66;;;-4.16;100.00
36828;BME280;22766;48.042;11.192;2023-02-15T05:33:34;96205.22;;;-4.14;100.00
36828;BME280;22766;48.042;11.192;2023-02-15T05:36:02;96203.50;;;-4.12;100.00
36828;BME280;22766;48.042;11.192;2023-02-15T05:38:30;96206.59;;;-3.99;100.00
36828;BME280;22766;48.042;11.192;2023-02-15T05:40:57;96203.28;;;-4.03;100.00
36828;BME280;22766;48.042;11.192;2023-02-15T05:43:25;96210.88;;;-4.04;100.00
36828;BME280;22766;48.042;11.192;2023-02-15T05:45:53;96209.09;;;-3.99;100.00
36828;BME280;22766;48.042;11.192;2023-02-15T05:48:23;96212.34;;;-3.94;100.00
36828;BME280;22766;48.042;11.192;2023-02-15T05:51:02;96210.41;;;-3.85;100.00
36828;BME280;22766;48.042;11.192;2023-02-15T05:53:31;96206.03;;;-3.76;100.00
36828;BME280;22766;48.042;11.192;2023-02-15T05:55:58;96202.38;;;-3.66;100.00
36828;BME280;22766;48.042;11.192;2023-02-15T05:58:33;96202.28;;;-3.62;100.00
36828;BME280;22766;48.042;11.192;2023-02-15T06:01:11;96203.06;;;-3.60;100.00
36828;BME280;22766;48.042;11.192;2023-02-15T06:03:38;96208.03;;;-3.57;100.00
36828;BME280;22766;48.042;11.192;2023-02-15T06:06:06;96200.25;;;-3.49;100.00
36828;BME280;22766;48.042;11.192;2023-02-15T06:08:34;96204.47;;;-3.48;100.00
36828;BME280;22766;48.042;11.192;2023-02-15T06:11:01;96209.41;;;-3.45;100.00
36828;BME280;22766;48.042;11.192;2023-02-15T06:13:28;96206.81;;;-3.42;100.00
36828;BME280;22766;48.042;11.192;2023-02-15T06:15:56;96206.81;;;-3.42;100.00
36828;BME280;22766;48.042;11.192;2023-02-15T06:18:22;96211.13;;;-3.46;100.00
36828;BME280;22766;48.042;11.192;2023-02-15T06:20:49;96211.13;;;-3.46;100.00
36828;BME280;22766;48.042;11.192;2023-02-15T06:23:16;96218.63;;;-3.43;100.00
36828;BME280;22766;48.042;11.192;2023-02-15T06:25:44;96213.66;;;-3.46;100.00
36828;BME280;22766;48.042;11.192;2023-02-15T06:28:11;96211.09;;;-3.44;100.00
36828;BME280;22766;48.042;11.192;2023-02-15T06:30:38;96223.56;;;-3.40;100.00
36828;BME280;22766;48.042;11.192;2023-02-15T06:33:05;96218.56;;;-3.41;100.00
36828;BME280;22766;48.042;11.192;2023-02-15T06:35:32;96215.94;;;-3.37;100.00
36828;BME280;22766;48.042;11.192;2023-02-15T06:37:58;96212.53;;;-3.36;100.00
36828;BME280;22766;48.042;11.192;2023-02-15T06:40:25;96214.16;;;-3.33;100.00
36828;BME280;22766;48.042;11.192;2023-02-15T06:42:52;96214.03;;;-3.29;100.00
36828;BME280;22766;48.042;11.192;2023-02-15T06:45:18;96214.78;;;-3.25;100.00
36828;BME280;22766;48.042;11.192;2023-02-15T06:47:45;96215.94;;;-3.37;100.00
36828;BME280;22766;48.042;11.192;2023-02-15T06:50:12;96221.81;;;-3.36;100.00
36828;BME280;22766;48.042;11.192;2023-02-15T06:52:39;96217.41;;;-3.30;100.00
36828;BME280;22766;48.042;11.192;2023-02-15T06:55:06;96211.38;;;-3.24;100.00
36828;BME280;22766;48.042;11.192;2023-02-15T06:57:33;96206.97;;;-3.16;100.00
36828;BME280;22766;48.042;11.192;2023-02-15T07:00:00;96216.47;;;-3.26;100.00
36828;BME280;22766;48.042;11.192;2023-02-15T07:02:27;96210.94;;;-3.38;100.00
36828;BME280;22766;48.042;11.192;2023-02-15T07:04:54;96214.25;;;-3.38;100.00
36828;BME280;22766;48.042;11.192;2023-02-15T07:07:21;96222.41;;;-3.27;100.00
36828;BME280;22766;48.042;11.192;2023-02-15T07:09:47;96225.44;;;-3.14;100.00
36828;BME280;22766;48.042;11.192;2023-02-15T07:12:14;96226.84;;;-3.04;100.00
36828;BME280;22766;48.042;11.192;2023-02-15T07:15:00;96229.91;;;-2.93;100.00
36828;BME280;22766;48.042;11.192;2023-02-15T07:17:27;96236.38;;;-2.85;100.00
36828;BME280;22766;48.042;11.192;2023-02-15T07:20:08;96233.69;;;-2.78;100.00
36828;BME280;22766;48.042;11.192;2023-02-15T07:22:36;96226.03;;;-2.75;100.00
36828;BME280;22766;48.042;11.192;2023-02-15T07:25:04;96230.09;;;-2.70;100.00
36828;BME280;22766;48.042;11.192;2023-02-15T07:27:32;96229.94;;;-2.65;100.00
36828;BME280;22766;48.042;11.192;2023-02-15T07:30:00;96230.50;;;-2.56;100.00
36828;BME280;22766;48.042;11.192;2023-02-15T07:32:28;96223.88;;;-2.60;100.00
36828;BME280;22766;48.042;11.192;2023-02-15T07:34:56;96230.63;;;-2.59;100.00
36828;BME280;22766;48.042;11.192;2023-02-15T07:37:23;96225.63;;;-2.62;100.00
36828;BME280;22766;48.042;11.192;2023-02-15T07:39:50;96214.72;;;-2.64;100.00
36828;BME280;22766;48.042;11.192;2023-02-15T07:42:17;96221.41;;;-2.61;100.00
36828;BME280;22766;48.042;11.192;2023-02-15T07:44:46;96221.13;;;-2.52;100.00
36828;BME280;22766;48.042;11.192;2023-02-15T07:47:13;96221.19;;;-2.54;100.00
36828;BME280;22766;48.042;11.192;2023-02-15T07:49:40;96218.03;;;-2.62;100.00
36828;BME280;22766;48.042;11.192;2023-02-15T07:52:06;96216.75;;;-2.46;100.00
36828;BME280;22766;48.042;11.192;2023-02-15T07:54:33;96214.22;;;-2.46;100.00
36828;BME280;22766;48.042;11.192;2023-02-15T07:57:00;96214.00;;;-2.38;100.00
36828;BME280;22766;48.042;11.192;2023-02-15T07:59:28;96210.84;;;-2.46;100.00
36828;BME280;22766;48.042;11.192;2023-02-15T08:01:54;96208.47;;;-2.51;100.00
36828;BME280;22766;48.042;11.192;2023-02-15T08:04:23;96206.44;;;-2.40;100.00
36828;BME280;22766;48.042;11.192;2023-02-15T08:06:53;96209.78;;;-2.12;100.00
36828;BME280;22766;48.042;11.192;2023-02-15T08:09:21;96194.81;;;-1.92;100.00
36828;BME280;22766;48.042;11.192;2023-02-15T08:11:48;96205.09;;;-1.96;100.00
36828;BME280;22766;48.042;11.192;2023-02-15T08:14:21;96201.66;;;-2.21;100.00
36828;BME280;22766;48.042;11.192;2023-02-15T08:16:53;96200.88;;;-1.97;100.00
36828;BME280;22766;48.042;11.192;2023-02-15T08:19:31;96201.25;;;-1.81;100.00
36828;BME280;22766;48.042;11.192;2023-02-15T08:22:01;96196.59;;;-1.69;100.00
36828;BME280;22766;48.042;11.192;2023-02-15T08:24:30;96199.13;;;-1.69;100.00
36828;BME280;22766;48.042;11.192;2023-02-15T08:26:57;96197.59;;;-1.73;100.00
36828;BME280;22766;48.042;11.192;2023-02-15T08:29:27;96200.06;;;-1.71;100.00
36828;BME280;22766;48.042;11.192;2023-02-15T08:31:56;96197.50;;;-1.96;100.00
36828;BME280;22766;48.042;11.192;2023-02-15T08:34:31;96203.81;;;-1.83;100.00
36828;BME280;22766;48.042;11.192;2023-02-15T08:36:58;96205.84;;;-1.68;100.00
36828;BME280;22766;48.042;11.192;2023-02-15T08:39:25;96198.59;;;-1.52;100.00
36828;BME280;22766;48.042;11.192;2023-02-15T08:41:52;96202.81;;;-1.28;100.00
36828;BME280;22766;48.042;11.192;2023-02-15T08:44:19;96200.28;;;-1.04;100.00
36828;BME280;22766;48.042;11.192;2023-02-15T08:46:47;96198.19;;;-0.93;100.00
36828;BME280;22766;48.042;11.192;2023-02-15T08:49:17;96197.81;;;-0.82;100.00
36828;BME280;22766;48.042;11.192;2023-02-15T08:51:45;96197.56;;;-0.76;100.00
36828;BME280;22766;48.042;11.192;2023-02-15T08:54:14;96194.53;;;-0.62;100.00
36828;BME280;22766;48.042;11.192;2023-02-15T08:56:42;96188.66;;;-0.63;100.00
36828;BME280;22766;48.042;11.192;2023-02-15T08:59:14;96191.00;;;-0.58;100.00
36828;BME280;22766;48.042;11.192;2023-02-15T09:01:43;96191.19;;;-0.63;100.00
36828;BME280;22766;48.042;11.192;2023-02-15T09:04:10;96190.94;;;-0.57;100.00
36828;BME280;22766;48.042;11.192;2023-02-15T09:06:37;96196.53;;;-0.70;100.00
36828;BME280;22766;48.042;11.192;2023-02-15T09:09:06;96198.59;;;-0.35;100.00
36828;BME280;22766;48.042;11.192;2023-02-15T09:11:35;96198.25;;;-0.71;100.00
36828;BME280;22766;48.042;11.192;2023-02-15T09:14:15;96197.53;;;-0.98;100.00
36828;BME280;22766;48.042;11.192;2023-02-15T09:16:44;96197.69;;;-0.56;100.00
36828;BME280;22766;48.042;11.192;2023-02-15T09:19:12;96199.78;;;-0.44;100.00
36828;BME280;22766;48.042;11.192;2023-02-15T09:21:39;96194.81;;;-0.25;100.00
36828;BME280;22766;48.042;11.192;2023-02-15T09:24:12;96206.31;;;-0.17;100.00
36828;BME280;22766;48.042;11.192;2023-02-15T09:26:41;96195.84;;;0.34;100.00
36828;BME280;22766;48.042;11.192;2023-02-15T09:29:09;96199.22;;;0.55;100.00
36828;BME280;22766;48.042;11.192;2023-02-15T09:31:41;96196.91;;;0.69;100.00
36828;BME280;22766;48.042;11.192;2023-02-15T09:34:15;96191.66;;;0.33;100.00
36828;BME280;22766;48.042;11.192;2023-02-15T09:36:43;96193.72;;;0.24;100.00
36828;BME280;22766;48.042;11.192;2023-02-15T09:39:12;96200.63;;;0.42;100.00
36828;BME280;22766;48.042;11.192;2023-02-15T10:01:12;96187.38;;;3.72;100.00
36828;BME280;22766;48.042;11.192;2023-02-15T10:12:32;96181.31;;;4.79;100.00
36828;BME280;22766;48.042;11.192;2023-02-15T10:26:30;96181.69;;;5.86;100.00
36828;BME280;22766;48.042;11.192;2023-02-15T10:32:24;96172.41;;;6.50;100.00
36828;BME280;22766;48.042;11.192;2023-02-15T10:35:20;96164.69;;;7.27;100.00
36828;BME280;22766;48.042;11.192;2023-02-15T10:48:47;96163.78;;;9.73;85.68
36828;BME280;22766;48.042;11.192;2023-02-15T10:51:47;96152.75;;;9.71;87.20
36828;BME280;22766;48.042;11.192;2023-02-15T10:57:01;96142.22;;;10.59;85.33
36828;BME280;22766;48.042;11.192;2023-02-15T11:07:47;96123.47;;;11.59;66.53
36828;BME280;22766;48.042;11.192;2023-02-15T11:13:19;96117.09;;;12.12;66.00
36828;BME280;22766;48.042;11.192;2023-02-15T11:15:49;96114.81;;;12.76;62.11
36828;BME280;22766;48.042;11.192;2023-02-15T11:23:27;96108.63;;;13.52;50.47
36828;BME280;22766;48.042;11.192;2023-02-15T11:25:57;96105.59;;;13.20;48.40
36828;BME280;22766;48.042;11.192;2023-02-15T11:28:31;96101.66;;;12.96;48.25
36828;BME280;22766;48.042;11.192;2023-02-15T11:31:10;96095.00;;;13.94;49.52
36828;BME280;22766;48.042;11.192;2023-02-15T11:33:42;96088.44;;;14.70;48.19
36828;BME280;22766;48.042;11.192;2023-02-15T11:36:16;96083.63;;;15.01;46.77
36828;BME280;22766;48.042;11.192;2023-02-15T11:38:46;96077.47;;;15.53;46.10
36828;BME280;22766;48.042;11.192;2023-02-15T11:41:19;96071.56;;;14.92;45.76
36828;BME280;22766;48.042;11.192;2023-02-15T11:43:56;96067.56;;;16.23;40.64
36828;BME280;22766;48.042;11.192;2023-02-15T11:46:24;96061.47;;;15.48;41.42
36828;BME280;22766;48.042;11.192;2023-02-15T11:48:51;96057.63;;;15.27;41.21
36828;BME280;22766;48.042;11.192;2023-02-15T11:51:22;96051.66;;;15.68;39.77
36828;BME280;22766;48.042;11.192;2023-02-15T11:53:50;96047.28;;;15.84;39.89
36828;BME280;22766;48.042;11.192;2023-02-15T11:56:26;96053.78;;;16.78;37.97
36828;BME280;22766;48.042;11.192;2023-02-15T11:59:03;96044.00;;;16.89;35.26
36828;BME280;22766;48.042;11.192;2023-02-15T12:06:44;96035.25;;;15.83;40.75
36828;BME280;22766;48.042;11.192;2023-02-15T12:14:58;96017.41;;;17.56;37.53
36828;BME280;22766;48.042;11.192;2023-02-15T12:17:49;96013.53;;;18.28;36.61
36828;BME280;22766;48.042;11.192;2023-02-15T12:23:12;96009.81;;;19.05;35.87
36828;BME280;22766;48.042;11.192;2023-02-15T12:25:49;96005.13;;;18.63;35.77
36828;BME280;22766;48.042;11.192;2023-02-15T12:30:57;95999.59;;;19.24;34.93
36828;BME280;22766;48.042;11.192;2023-02-15T12:33:39;95995.00;;;18.97;34.99
36828;BME280;22766;48.042;11.192;2023-02-15T12:36:19;95995.31;;;18.80;35.41
36828;BME280;22766;48.042;11.192;2023-02-15T12:41:56;95994.69;;;18.78;33.27
36828;BME280;22766;48.042;11.192;2023-02-15T12:44:35;95992.63;;;19.02;33.02
36828;BME280;22766;48.042;11.192;2023-02-15T12:49:43;95983.16;;;19.95;30.92
36828;BME280;22766;48.042;11.192;2023-02-15T12:54:50;95979.88;;;19.72;29.94
36828;BME280;22766;48.042;11.192;2023-02-15T13:04:53;95978.47;;;20.26;29.39
36828;BME280;22766;48.042;11.192;2023-02-15T13:07:21;95970.41;;;20.77;28.08
36828;BME280;22766;48.042;11.192;2023-02-15T13:09:50;95965.16;;;21.38;27.30
36828;BME280;22766;48.042;11.192;2023-02-15T13:12:23;95963.41;;;22.12;27.35
36828;BME280;22766;48.042;11.192;2023-02-15T13:14:54;95960.63;;;22.47;26.52
36828;BME280;22766;48.042;11.192;2023-02-15T13:17:26;95959.00;;;22.59;26.77
36828;BME280;22766;48.042;11.192;2023-02-15T13:19:58;95954.69;;;21.04;26.91
36828;BME280;22766;48.042;11.192;2023-02-15T13:22:39;95955.13;;;20.87;28.43
36828;BME280;22766;48.042;11.192;2023-02-15T13:25:14;95950.84;;;22.01;27.39
36828;BME280;22766;48.042;11.192;2023-02-15T13:27:46;95958.91;;;21.93;27.92
36828;BME280;22766;48.042;11.192;2023-02-15T13:30:34;95940.16;;;22.36;26.94
36828;BME280;22766;48.042;11.192;2023-02-15T13:33:16;95941.41;;;21.66;28.70
36828;BME280;22766;48.042;11.192;2023-02-15T13:41:33;95940.91;;;21.43;27.94
36828;BME280;22766;48.042;11.192;2023-02-15T14:03:32;95929.38;;;21.91;27.91
36828;BME280;22766;48.042;11.192;2023-02-15T14:06:26;95931.00;;;20.70;29.19
36828;BME280;22766;48.042;11.192;2023-02-15T14:19:48;95925.78;;;22.45;26.38
36828;BME280;22766;48.042;11.192;2023-02-15T14:22:41;95921.66;;;23.14;26.06
36828;BME280;22766;48.042;11.192;2023-02-15T14:30:25;95912.13;;;21.76;27.80
36828;BME280;22766;48.042;11.192;2023-02-15T14:35:34;95921.47;;;20.97;28.88
36828;BME280;22766;48.042;11.192;2023-02-15T14:46:42;95922.13;;;22.06;27.17
36828;BME280;22766;48.042;11.192;2023-02-15T14:49:30;95922.22;;;21.18;28.58
36828;BME280;22766;48.042;11.192;2023-02-15T14:52:06;95919.66;;;21.85;27.77
36828;BME280;22766;48.042;11.192;2023-02-15T15:02:19;95923.38;;;23.59;28.64
36828;BME280;22766;48.042;11.192;2023-02-15T15:07:41;95932.81;;;20.70;33.74
36828;BME280;22766;48.042;11.192;2023-02-15T15:12:49;95924.53;;;21.41;32.61
36828;BME280;22766;48.042;11.192;2023-02-15T15:17:59;95930.09;;;19.93;34.96
36828;BME280;22766;48.042;11.192;2023-02-15T15:25:57;95924.69;;;17.60;39.01
36828;BME280;22766;48.042;11.192;2023-02-15T15:34:19;95928.97;;;15.63;46.04
36828;BME280;22766;48.042;11.192;2023-02-15T15:37:20;95928.94;;;15.55;45.80
36828;BME280;22766;48.042;11.192;2023-02-15T15:43:16;95925.97;;;14.15;50.22
36828;BME280;22766;48.042;11.192;2023-02-15T15:46:07;95928.31;;;12.93;58.11
36828;BME280;22766;48.042;11.192;2023-02-15T15:48:40;95925.31;;;11.96;66.28
36828;BME280;22766;48.042;11.192;2023-02-15T15:51:22;95921.72;;;11.30;73.15
36828;BME280;22766;48.042;11.192;2023-02-15T15:53:52;95932.16;;;11.19;70.89
36828;BME280;22766;48.042;11.192;2023-02-15T15:56:26;95931.19;;;10.61;78.05
36828;BME280;22766;48.042;11.192;2023-02-15T15:59:00;95931.91;;;10.43;78.76
36828;BME280;22766;48.042;11.192;2023-02-15T16:01:30;95936.16;;;10.23;77.21
36828;BME280;22766;48.042;11.192;2023-02-15T16:04:00;95931.41;;;9.87;79.89
36828;BME280;22766;48.042;11.192;2023-02-15T16:08:53;95941.41;;;9.49;86.01
36828;BME280;22766;48.042;11.192;2023-02-15T16:11:26;95936.25;;;9.06;89.11
36828;BME280;22766;48.042;11.192;2023-02-15T16:13:55;95944.16;;;8.71;90.96
36828;BME280;22766;48.042;11.192;2023-02-15T16:16:24;95941.34;;;8.52;92.31
36828;BME280;22766;48.042;11.192;2023-02-15T16:18:55;95959.75;;;8.24;92.13
36828;BME280;22766;48.042;11.192;2023-02-15T16:21:31;95958.03;;;7.79;96.36
36828;BME280;22766;48.042;11.192;2023-02-15T16:29:18;95958.66;;;6.63;100.00
36828;BME280;22766;48.042;11.192;2023-02-15T16:32:03;95955.56;;;6.57;100.00
36828;BME280;22766;48.042;11.192;2023-02-15T16:34:30;95968.63;;;6.42;100.00
36828;BME280;22766;48.042;11.192;2023-02-15T16:37:28;95968.81;;;6.39;100.00
36828;BME280;22766;48.042;11.192;2023-02-15T16:39:57;95970.97;;;6.20;100.00
36828;BME280;22766;48.042;11.192;2023-02-15T16:42:25;95971.28;;;5.76;100.00
36828;BME280;22766;48.042;11.192;2023-02-15T16:45:06;95968.81;;;5.62;100.00
36828;BME280;22766;48.042;11.192;2023-02-15T16:47:40;95975.25;;;5.55;100.00
36828;BME280;22766;48.042;11.192;2023-02-15T16:50:20;95977.31;;;5.62;100.00
36828;BME280;22766;48.042;11.192;2023-02-15T16:52:49;95980.34;;;5.42;100.00
36828;BME280;22766;48.042;11.192;2023-02-15T16:55:45;95981.06;;;5.18;100.00
36828;BME280;22766;48.042;11.192;2023-02-15T16:58:15;95986.78;;;4.95;100.00
36828;BME280;22766;48.042;11.192;2023-02-15T17:00:43;95987.59;;;4.81;100.00
36828;BME280;22766;48.042;11.192;2023-02-15T17:05:46;95994.59;;;4.65;100.00
36828;BME280;22766;48.042;11.192;2023-02-15T17:11:04;95998.50;;;4.42;100.00
36828;BME280;22766;48.042;11.192;2023-02-15T17:13:32;96000.22;;;4.28;100.00
36828;BME280;22766;48.042;11.192;2023-02-15T17:21:10;96007.94;;;3.98;100.00
36828;BME280;22766;48.042;11.192;2023-02-15T17:23:50;96004.53;;;3.84;100.00
36828;BME280;22766;48.042;11.192;2023-02-15T17:28:50;96012.16;;;3.69;100.00